Time;durP1;ratioP1;P1;durP2;ratioP2;P2;SDS_P1;SDS_P2;PMS_P1;PMS_P2;Temp;Humidity;BMP_temperature;BMP_pressure;BME280_temperature;BME280_humidity;BME280_pressure;Samples;Min_cycle;Max_cycle;Signal;HPM_P1;HPM_P2
2024/01/13 00:01:24;;;;;;;0.10;0.10;;;;;;;;;;5060607;28;20064;-59
2024/01/13 00:03:49;;;;;;;0.20;0.20;;;;;;;;;;5059403;28;20135;-59
2024/01/13 00:06:16;;;;;;;0.00;0.00;;;;;;;;;;5060342;28;20071;-59
2024/01/13 00:08:41;;;;;;;0.00;0.00;;;;;;;;;;5057275;28;20048;-59
2024/01/13 00:11:07;;;;;;;0.10;0.10;;;;;;;;;;5055789;28;20036;-59
2024/01/13 00:13:34;;;;;;;0.73;0.73;;;;;;;;;;5063243;28;20108;-64
2024/01/13 00:16:00;;;;;;;0.22;0.22;;;;;;;;;;5064178;28;20025;-64
2024/01/13 00:18:26;;;;;;;2.58;0.82;;;;;;;;;;5059918;28;20025;-64
2024/01/13 00:20:53;;;;;;;0.10;0.10;;;;;;;;;;5061485;28;20511;-64
2024/01/13 00:23:19;;;;;;;0.00;0.00;;;;;;;;;;5063181;28;20045;-64
2024/01/13 00:25:46;;;;;;;0.00;0.00;;;;;;;;;;5063299;28;20256;-63
2024/01/13 00:28:12;;;;;;;0.03;0.03;;;;;;;;;;5063783;28;20040;-65
2024/01/13 00:30:38;;;;;;;2.20;1.55;;;;;;;;;;5064560;28;20400;-64
2024/01/13 00:33:04;;;;;;;1.23;1.13;;;;;;;;;;5062872;28;20036;-64
2024/01/13 00:35:30;;;;;;;0.08;0.08;;;;;;;;;;5064842;28;20029;-63
2024/01/13 00:37:56;;;;;;;0.10;0.10;;;;;;;;;;5061113;28;20037;-64
2024/01/13 00:40:22;;;;;;;0.93;0.93;;;;;;;;;;5041310;28;20175;-65
2024/01/13 00:42:48;;;;;;;0.00;0.00;;;;;;;;;;5059469;28;20048;-64
2024/01/13 00:45:14;;;;;;;0.00;0.00;;;;;;;;;;5065464;28;20109;-65
2024/01/13 00:47:40;;;;;;;25.77;3.63;;;;;;;;;;5063707;28;20195;-65
2024/01/13 00:50:06;;;;;;;0.00;0.00;;;;;;;;;;5061759;28;20100;-64
2024/01/13 00:52:32;;;;;;;0.00;0.00;;;;;;;;;;5071515;28;20040;-65
2024/01/13 00:54:58;;;;;;;0.17;0.17;;;;;;;;;;5065123;28;20047;-65
2024/01/13 00:57:24;;;;;;;0.32;0.32;;;;;;;;;;5065096;28;20115;-65
2024/01/13 00:59:50;;;;;;;0.43;0.43;;;;;;;;;;5064296;28;20500;-64
2024/01/13 01:02:16;;;;;;;0.00;0.00;;;;;;;;;;5062561;28;20044;-64
2024/01/13 01:04:42;;;;;;;1.48;1.38;;;;;;;;;;5059671;28;20036;-65
2024/01/13 01:07:08;;;;;;;0.00;0.00;;;;;;;;;;5065806;28;20041;-64
2024/01/13 01:09:34;;;;;;;3.05;2.78;;;;;;;;;;5066146;28;20032;-64
2024/01/13 01:12:00;;;;;;;0.45;0.45;;;;;;;;;;5071181;28;20166;-64
2024/01/13 01:14:26;;;;;;;2.13;1.95;;;;;;;;;;5060754;28;20059;-65
2024/01/13 01:16:52;;;;;;;0.43;0.43;;;;;;;;;;5066055;28;20190;-63
2024/01/13 01:19:18;;;;;;;0.52;0.52;;;;;;;;;;5066857;28;20113;-64
2024/01/13 01:21:44;;;;;;;1.98;1.63;;;;;;;;;;5069900;28;20127;-64
2024/01/13 01:24:09;;;;;;;0.28;0.22;;;;;;;;;;5064909;28;20186;-65
2024/01/13 01:26:35;;;;;;;0.00;0.00;;;;;;;;;;5045530;28;20036;-64
2024/01/13 01:29:01;;;;;;;0.32;0.32;;;;;;;;;;5064466;28;20043;-64
2024/01/13 01:31:27;;;;;;;0.90;0.90;;;;;;;;;;5058013;28;20032;-63
2024/01/13 01:33:53;;;;;;;0.52;0.52;;;;;;;;;;5061841;28;20063;-59
2024/01/13 01:36:19;;;;;;;0.32;0.32;;;;;;;;;;5065780;28;20093;-60
2024/01/13 01:38:45;;;;;;;0.47;0.47;;;;;;;;;;5062824;28;20032;-61
2024/01/13 01:41:15;;;;;;;0.45;0.45;;;;;;;;;;5057896;28;20566;-61
2024/01/13 01:43:41;;;;;;;0.45;0.45;;;;;;;;;;5060724;28;20127;-58
2024/01/13 01:46:08;;;;;;;1.25;1.08;;;;;;;;;;5065004;28;20057;-59
2024/01/13 01:48:36;;;;;;;0.00;0.00;;;;;;;;;;5062700;28;20043;-59
2024/01/13 01:51:02;;;;;;;0.00;0.00;;;;;;;;;;5061666;28;20036;-61
2024/01/13 01:53:28;;;;;;;0.00;0.00;;;;;;;;;;5065565;28;20032;-65
2024/01/13 01:55:54;;;;;;;2.92;2.50;;;;;;;;;;5049529;28;20473;-63
2024/01/13 01:58:20;;;;;;;0.20;0.20;;;;;;;;;;5063331;28;20043;-64
2024/01/13 02:00:47;;;;;;;0.00;0.00;;;;;;;;;;5064315;28;20127;-64
2024/01/13 02:03:14;;;;;;;0.00;0.00;;;;;;;;;;5063459;28;20036;-64
2024/01/13 02:05:40;;;;;;;2.65;1.35;;;;;;;;;;5064095;28;20036;-64
2024/01/13 02:08:07;;;;;;;6.88;1.52;;;;;;;;;;5044427;28;20043;-64
2024/01/13 02:10:33;;;;;;;0.30;0.30;;;;;;;;;;5060738;28;20036;-64
2024/01/13 02:12:59;;;;;;;1.35;1.35;;;;;;;;;;5060832;28;20043;-63
2024/01/13 02:15:25;;;;;;;1.13;0.95;;;;;;;;;;5057996;28;20043;-64
2024/01/13 02:17:51;;;;;;;0.00;0.00;;;;;;;;;;5061875;28;20119;-64
2024/01/13 02:20:17;;;;;;;1.85;1.58;;;;;;;;;;5058186;28;20036;-63
2024/01/13 02:22:43;;;;;;;0.05;0.05;;;;;;;;;;5062487;28;20044;-64
2024/01/13 02:25:09;;;;;;;0.00;0.00;;;;;;;;;;5062579;28;20374;-64
2024/01/13 02:27:35;;;;;;;0.10;0.10;;;;;;;;;;5058711;28;20044;-63
2024/01/13 02:30:01;;;;;;;0.00;0.00;;;;;;;;;;5064275;28;20094;-64
2024/01/13 02:32:27;;;;;;;0.90;0.85;;;;;;;;;;5063548;28;20040;-65
2024/01/13 02:34:53;;;;;;;0.10;0.10;;;;;;;;;;5070258;28;20033;-65
2024/01/13 02:37:19;;;;;;;0.10;0.10;;;;;;;;;;5060892;28;20041;-64
2024/01/13 02:39:46;;;;;;;0.00;0.00;;;;;;;;;;5064173;28;20067;-63
2024/01/13 02:42:12;;;;;;;0.45;0.45;;;;;;;;;;5059144;28;20045;-65
2024/01/13 02:44:38;;;;;;;0.22;0.22;;;;;;;;;;5062814;28;20063;-64
2024/01/13 02:47:04;;;;;;;0.40;0.40;;;;;;;;;;5040377;28;20099;-65
2024/01/13 02:49:30;;;;;;;2.50;2.40;;;;;;;;;;5065872;28;20068;-64
2024/01/13 02:51:56;;;;;;;0.45;0.45;;;;;;;;;;5065751;28;20039;-64
2024/01/13 02:54:22;;;;;;;1.55;1.13;;;;;;;;;;5047733;28;20044;-64
2024/01/13 02:56:48;;;;;;;0.00;0.00;;;;;;;;;;5068186;28;20044;-65
2024/01/13 02:59:14;;;;;;;0.00;0.00;;;;;;;;;;5044497;28;20131;-64
2024/01/13 03:01:40;;;;;;;0.00;0.00;;;;;;;;;;5061719;28;20942;-65
2024/01/13 03:04:06;;;;;;;0.38;0.38;;;;;;;;;;5061892;28;20142;-64
2024/01/13 03:06:33;;;;;;;0.00;0.00;;;;;;;;;;5065119;28;20409;-63
2024/01/13 03:08:59;;;;;;;1.27;1.17;;;;;;;;;;5063494;28;20725;-64
2024/01/13 03:11:25;;;;;;;0.00;0.00;;;;;;;;;;5065300;28;20035;-65
2024/01/13 03:13:51;;;;;;;0.00;0.00;;;;;;;;;;5060731;28;20094;-65
2024/01/13 03:16:17;;;;;;;0.00;0.00;;;;;;;;;;5063300;28;20618;-64
2024/01/13 03:18:43;;;;;;;0.00;0.00;;;;;;;;;;5058953;28;20043;-64
2024/01/13 03:21:10;;;;;;;0.10;0.00;;;;;;;;;;5060930;28;20534;-64
2024/01/13 03:23:36;;;;;;;0.30;0.30;;;;;;;;;;5060530;28;20032;-64
2024/01/13 03:26:01;;;;;;;2.20;1.23;;;;;;;;;;5060237;28;20596;-63
2024/01/13 03:28:27;;;;;;;0.00;0.00;;;;;;;;;;5062969;28;20047;-63
2024/01/13 03:30:53;;;;;;;1.17;1.08;;;;;;;;;;5045164;28;20031;-64
2024/01/13 03:33:19;;;;;;;0.30;0.30;;;;;;;;;;5063260;28;20553;-64
2024/01/13 03:35:45;;;;;;;0.38;0.38;;;;;;;;;;5063296;28;20032;-64
2024/01/13 03:38:11;;;;;;;1.75;1.45;;;;;;;;;;5065900;28;20042;-64
2024/01/13 03:40:37;;;;;;;0.00;0.00;;;;;;;;;;5063906;28;20522;-64
2024/01/13 03:43:03;;;;;;;0.00;0.00;;;;;;;;;;5058099;28;20044;-64
2024/01/13 03:45:29;;;;;;;0.00;0.00;;;;;;;;;;5061264;28;20047;-65
2024/01/13 03:47:55;;;;;;;0.70;0.43;;;;;;;;;;5065914;28;20036;-64
2024/01/13 03:50:21;;;;;;;0.60;0.60;;;;;;;;;;5059405;28;20052;-64
2024/01/13 03:52:48;;;;;;;0.00;0.00;;;;;;;;;;5063914;28;20036;-64
2024/01/13 03:55:14;;;;;;;0.00;0.00;;;;;;;;;;5069418;28;20119;-64
2024/01/13 03:57:40;;;;;;;1.20;0.65;;;;;;;;;;5059806;28;20044;-64
2024/01/13 04:00:08;;;;;;;1.17;0.88;;;;;;;;;;5067807;28;20036;-64
2024/01/13 04:02:34;;;;;;;0.00;0.00;;;;;;;;;;5061136;28;20499;-60
2024/01/13 04:05:00;;;;;;;0.25;0.25;;;;;;;;;;5062335;28;20044;-59
2024/01/13 04:07:25;;;;;;;0.00;0.00;;;;;;;;;;5065420;28;20147;-60
2024/01/13 04:09:51;;;;;;;1.65;1.15;;;;;;;;;;5060558;28;20123;-59
2024/01/13 04:12:17;;;;;;;0.00;0.00;;;;;;;;;;5058443;28;20044;-59
2024/01/13 04:14:43;;;;;;;0.20;0.20;;;;;;;;;;5062135;28;20048;-64
2024/01/13 04:17:09;;;;;;;0.00;0.00;;;;;;;;;;5061138;28;20032;-65
2024/01/13 04:19:35;;;;;;;14.18;10.02;;;;;;;;;;5062116;28;20041;-64
2024/01/13 04:22:01;;;;;;;0.00;0.00;;;;;;;;;;5062912;28;20037;-64
2024/01/13 04:24:27;;;;;;;0.95;0.95;;;;;;;;;;5060232;28;20047;-64
2024/01/13 04:26:53;;;;;;;0.10;0.10;;;;;;;;;;5059104;28;20037;-65
2024/01/13 04:29:19;;;;;;;0.10;0.10;;;;;;;;;;5065614;28;20033;-64
2024/01/13 04:31:45;;;;;;;0.00;0.00;;;;;;;;;;5061836;28;20435;-64
2024/01/13 04:34:11;;;;;;;0.00;0.00;;;;;;;;;;5057282;28;20698;-64
2024/01/13 04:36:37;;;;;;;0.00;0.00;;;;;;;;;;5063043;28;20656;-64
2024/01/13 04:39:03;;;;;;;1.35;0.98;;;;;;;;;;5059617;28;20041;-65
2024/01/13 04:41:29;;;;;;;2.17;2.08;;;;;;;;;;5050370;28;20117;-64
2024/01/13 04:43:55;;;;;;;0.00;0.00;;;;;;;;;;5058576;28;20090;-64
2024/01/13 04:46:21;;;;;;;1.52;0.22;;;;;;;;;;5060617;28;20056;-65
2024/01/13 04:48:47;;;;;;;0.00;0.00;;;;;;;;;;5042131;28;20139;-64
2024/01/13 04:51:13;;;;;;;0.45;0.45;;;;;;;;;;5062059;28;20037;-64
2024/01/13 04:53:39;;;;;;;0.00;0.00;;;;;;;;;;5062816;28;20033;-64
2024/01/13 04:56:05;;;;;;;0.00;0.00;;;;;;;;;;5061415;28;20162;-65
2024/01/13 04:58:31;;;;;;;0.00;0.00;;;;;;;;;;5067007;28;20028;-64
2024/01/13 05:00:57;;;;;;;0.00;0.00;;;;;;;;;;5060883;28;20029;-64
2024/01/13 05:03:23;;;;;;;0.10;0.00;;;;;;;;;;5064311;28;20536;-65
2024/01/13 05:05:49;;;;;;;0.10;0.10;;;;;;;;;;5057813;28;20442;-64
2024/01/13 05:08:15;;;;;;;1.85;1.70;;;;;;;;;;5061310;28;20051;-65
2024/01/13 05:10:41;;;;;;;0.30;0.30;;;;;;;;;;5058947;28;20048;-64
2024/01/13 05:13:07;;;;;;;1.00;0.85;;;;;;;;;;5064797;28;20041;-64
2024/01/13 05:15:33;;;;;;;0.08;0.08;;;;;;;;;;5068508;28;20093;-64
2024/01/13 05:17:59;;;;;;;0.38;0.35;;;;;;;;;;5061221;28;20036;-64
2024/01/13 05:20:24;;;;;;;3.33;1.20;;;;;;;;;;5065148;28;20047;-64
2024/01/13 05:22:51;;;;;;;0.00;0.00;;;;;;;;;;5065244;28;20040;-63
2024/01/13 05:25:17;;;;;;;2.15;1.95;;;;;;;;;;5064118;28;20056;-64
2024/01/13 05:27:43;;;;;;;0.00;0.00;;;;;;;;;;5070326;28;20347;-64
2024/01/13 05:30:09;;;;;;;1.65;0.93;;;;;;;;;;5048724;28;20028;-64
2024/01/13 05:32:39;;;;;;;0.40;0.40;;;;;;;;;;5066258;28;20041;-61
2024/01/13 05:35:06;;;;;;;1.08;0.98;;;;;;;;;;5063975;28;20036;-64
2024/01/13 05:37:33;;;;;;;2.35;1.10;;;;;;;;;;5055329;28;20523;-65
2024/01/13 05:39:59;;;;;;;0.60;0.60;;;;;;;;;;5070150;28;20843;-64
2024/01/13 05:42:25;;;;;;;0.20;0.20;;;;;;;;;;5063833;28;20540;-64
2024/01/13 05:44:51;;;;;;;0.03;0.03;;;;;;;;;;5070611;28;20742;-64
2024/01/13 05:47:17;;;;;;;1.05;0.95;;;;;;;;;;5064903;28;20116;-65
2024/01/13 05:49:43;;;;;;;0.47;0.47;;;;;;;;;;5066942;28;20058;-65
2024/01/13 05:52:10;;;;;;;0.00;0.00;;;;;;;;;;5061822;28;20040;-64
2024/01/13 05:54:38;;;;;;;0.00;0.00;;;;;;;;;;5062147;28;20029;-64
2024/01/13 05:57:04;;;;;;;0.70;0.57;;;;;;;;;;5062403;28;20214;-64
2024/01/13 05:59:30;;;;;;;0.20;0.20;;;;;;;;;;5064323;28;20391;-64
2024/01/13 06:01:56;;;;;;;0.93;0.25;;;;;;;;;;5066326;28;20041;-64
2024/01/13 06:04:22;;;;;;;0.38;0.38;;;;;;;;;;5068406;28;20044;-65
2024/01/13 06:06:48;;;;;;;0.30;0.30;;;;;;;;;;5063807;28;20135;-64
2024/01/13 06:09:15;;;;;;;0.00;0.00;;;;;;;;;;5064325;28;20492;-64
2024/01/13 06:11:41;;;;;;;0.00;0.00;;;;;;;;;;5064239;28;20174;-63
2024/01/13 06:14:07;;;;;;;2.20;0.75;;;;;;;;;;5054338;28;20044;-65
2024/01/13 06:16:33;;;;;;;0.50;0.50;;;;;;;;;;5060710;28;20044;-65
2024/01/13 06:19:01;;;;;;;0.00;0.00;;;;;;;;;;5066259;28;20044;-64
2024/01/13 06:21:27;;;;;;;0.00;0.00;;;;;;;;;;5068901;28;20533;-64
2024/01/13 06:23:56;;;;;;;0.73;0.60;;;;;;;;;;5069149;28;20045;-63
2024/01/13 06:26:22;;;;;;;0.10;0.10;;;;;;;;;;5069875;28;20032;-64
2024/01/13 06:28:48;;;;;;;1.30;1.02;;;;;;;;;;5073916;28;20038;-64
2024/01/13 06:31:14;;;;;;;1.40;1.30;;;;;;;;;;5062795;28;20036;-64
2024/01/13 06:33:40;;;;;;;0.00;0.00;;;;;;;;;;5064097;28;20045;-64
2024/01/13 06:36:06;;;;;;;0.00;0.00;;;;;;;;;;5069179;28;20038;-64
2024/01/13 06:38:32;;;;;;;0.00;0.00;;;;;;;;;;5066383;28;20136;-64
2024/01/13 06:40:58;;;;;;;0.35;0.35;;;;;;;;;;5061359;28;20040;-64
2024/01/13 06:43:24;;;;;;;0.32;0.30;;;;;;;;;;5064428;28;20060;-64
2024/01/13 06:45:50;;;;;;;1.05;1.00;;;;;;;;;;5062072;28;20036;-64
2024/01/13 06:48:16;;;;;;;0.43;0.43;;;;;;;;;;5054792;28;20050;-64
2024/01/13 06:50:42;;;;;;;0.10;0.10;;;;;;;;;;5061399;28;20059;-64
2024/01/13 06:53:08;;;;;;;0.08;0.08;;;;;;;;;;5060954;28;20043;-64
2024/01/13 06:55:34;;;;;;;3.35;2.72;;;;;;;;;;5067443;28;20025;-64
2024/01/13 06:58:00;;;;;;;0.35;0.35;;;;;;;;;;5065760;28;20032;-65
2024/01/13 07:00:26;;;;;;;0.30;0.30;;;;;;;;;;5059741;28;20040;-64
2024/01/13 07:02:53;;;;;;;0.00;0.00;;;;;;;;;;5061259;28;20527;-65
2024/01/13 07:05:19;;;;;;;0.35;0.35;;;;;;;;;;5058286;28;20037;-65
2024/01/13 07:07:45;;;;;;;0.00;0.00;;;;;;;;;;5056890;28;20032;-64
2024/01/13 07:10:11;;;;;;;0.20;0.20;;;;;;;;;;5059536;28;20057;-64
2024/01/13 07:12:37;;;;;;;0.00;0.00;;;;;;;;;;5058993;28;20445;-65
2024/01/13 07:15:03;;;;;;;1.17;0.57;;;;;;;;;;5058647;28;20364;-64
2024/01/13 07:17:29;;;;;;;0.52;0.52;;;;;;;;;;5062293;28;20098;-65
2024/01/13 07:19:55;;;;;;;0.30;0.30;;;;;;;;;;5059568;28;20127;-64
2024/01/13 07:22:21;;;;;;;1.75;1.40;;;;;;;;;;5059043;28;20162;-65
2024/01/13 07:24:48;;;;;;;2.08;0.95;;;;;;;;;;5061914;28;20032;-64
2024/01/13 07:27:14;;;;;;;4.20;1.05;;;;;;;;;;5063614;28;20105;-64
2024/01/13 07:29:40;;;;;;;6.07;2.08;;;;;;;;;;5061818;28;20489;-65
2024/01/13 07:32:06;;;;;;;0.00;0.00;;;;;;;;;;5045938;28;20026;-65
2024/01/13 07:34:32;;;;;;;0.03;0.03;;;;;;;;;;5057841;28;20073;-65
2024/01/13 07:36:58;;;;;;;0.80;0.80;;;;;;;;;;5060308;28;20052;-65
2024/01/13 07:39:24;;;;;;;1.95;0.70;;;;;;;;;;5061756;28;20032;-64
2024/01/13 07:41:50;;;;;;;3.38;3.10;;;;;;;;;;5063458;28;20046;-64
2024/01/13 07:44:17;;;;;;;1.08;1.08;;;;;;;;;;5059215;28;20337;-60
2024/01/13 07:46:43;;;;;;;1.67;1.20;;;;;;;;;;5064530;28;20043;-60
2024/01/13 07:49:09;;;;;;;0.00;0.00;;;;;;;;;;5060202;28;20086;-59
2024/01/13 07:51:36;;;;;;;1.92;1.33;;;;;;;;;;5060046;28;20325;-59
2024/01/13 07:54:02;;;;;;;7.97;2.95;;;;;;;;;;5063000;28;20100;-61
2024/01/13 07:56:28;;;;;;;0.95;0.75;;;;;;;;;;5058721;28;20184;-59
2024/01/13 07:58:54;;;;;;;1.23;0.85;;;;;;;;;;5042955;28;20279;-59
2024/01/13 08:01:20;;;;;;;0.85;0.85;;;;;;;;;;5063947;28;20039;-61
2024/01/13 08:03:46;;;;;;;2.67;1.65;;;;;;;;;;5043315;28;20039;-60
2024/01/13 08:06:13;;;;;;;0.75;0.75;;;;;;;;;;5060929;28;20391;-59
2024/01/13 08:08:39;;;;;;;1.52;1.20;;;;;;;;;;5061975;28;20036;-61
2024/01/13 08:11:05;;;;;;;3.85;1.85;;;;;;;;;;5063436;28;20043;-59
2024/01/13 08:13:31;;;;;;;2.03;1.80;;;;;;;;;;5058920;28;20039;-59
2024/01/13 08:15:58;;;;;;;0.70;0.68;;;;;;;;;;5066682;28;20021;-59
2024/01/13 08:18:24;;;;;;;5.43;1.52;;;;;;;;;;5056341;28;20380;-61
2024/01/13 08:20:51;;;;;;;2.45;2.35;;;;;;;;;;5057092;28;20040;-60
2024/01/13 08:23:17;;;;;;;1.40;0.90;;;;;;;;;;5060213;28;20037;-60
2024/01/13 08:25:43;;;;;;;0.68;0.68;;;;;;;;;;5063199;28;20029;-60
2024/01/13 08:28:09;;;;;;;3.60;2.90;;;;;;;;;;5057271;28;20602;-61
2024/01/13 08:30:35;;;;;;;0.60;0.60;;;;;;;;;;5056633;28;20029;-59
2024/01/13 08:33:01;;;;;;;0.47;0.47;;;;;;;;;;5056376;28;20082;-60
2024/01/13 08:35:27;;;;;;;0.52;0.52;;;;;;;;;;5065216;28;20049;-61
2024/01/13 08:37:55;;;;;;;1.50;1.40;;;;;;;;;;5059363;28;20484;-60
2024/01/13 08:40:21;;;;;;;12.00;1.15;;;;;;;;;;5039304;28;20126;-59
2024/01/13 08:42:49;;;;;;;0.28;0.28;;;;;;;;;;5061966;28;20813;-59
2024/01/13 08:45:15;;;;;;;0.00;0.00;;;;;;;;;;5057038;28;20040;-61
2024/01/13 08:47:41;;;;;;;0.00;0.00;;;;;;;;;;5066230;28;20154;-59
2024/01/13 08:50:07;;;;;;;3.45;1.27;;;;;;;;;;5047086;28;20150;-61
2024/01/13 08:52:33;;;;;;;0.25;0.25;;;;;;;;;;5064129;28;20044;-62
2024/01/13 08:54:59;;;;;;;4.00;1.75;;;;;;;;;;5046356;28;20028;-64
2024/01/13 08:57:25;;;;;;;0.85;0.85;;;;;;;;;;5061666;28;20046;-65
2024/01/13 08:59:51;;;;;;;1.42;1.35;;;;;;;;;;5062868;28;20043;-65
2024/01/13 09:02:18;;;;;;;2.38;0.63;;;;;;;;;;5066527;28;20165;-65
2024/01/13 09:04:44;;;;;;;0.25;0.25;;;;;;;;;;5067575;28;20595;-61
2024/01/13 09:07:09;;;;;;;0.30;0.30;;;;;;;;;;5057515;28;20436;-59
2024/01/13 09:09:35;;;;;;;0.00;0.00;;;;;;;;;;5063750;28;20028;-59
2024/01/13 09:12:01;;;;;;;0.00;0.00;;;;;;;;;;5066539;28;20063;-60
2024/01/13 09:14:27;;;;;;;0.55;0.47;;;;;;;;;;5062455;28;20556;-59
2024/01/13 09:16:53;;;;;;;0.32;0.32;;;;;;;;;;5064547;28;20148;-59
2024/01/13 09:19:19;;;;;;;0.90;0.57;;;;;;;;;;5060893;28;20150;-59
2024/01/13 09:21:45;;;;;;;0.00;0.00;;;;;;;;;;5063965;28;20101;-62
2024/01/13 09:24:11;;;;;;;3.20;0.80;;;;;;;;;;5042817;28;20047;-60
2024/01/13 09:26:41;;;;;;;0.35;0.30;;;;;;;;;;5053028;28;20136;-59
2024/01/13 09:29:07;;;;;;;0.15;0.15;;;;;;;;;;5035425;28;20586;-59
2024/01/13 09:31:33;;;;;;;3.10;0.70;;;;;;;;;;5053360;28;20124;-61
2024/01/13 09:33:59;;;;;;;0.10;0.10;;;;;;;;;;5063168;28;20040;-60
2024/01/13 09:36:25;;;;;;;0.30;0.30;;;;;;;;;;5059175;28;20028;-59
2024/01/13 09:38:50;;;;;;;0.55;0.55;;;;;;;;;;5068310;28;20040;-59
2024/01/13 09:41:17;;;;;;;0.38;0.38;;;;;;;;;;5055784;28;20098;-59
2024/01/13 09:44:00;;;;;;;1.27;0.80;;;;;;;;;;5063798;28;20030;-59
2024/01/13 09:46:26;;;;;;;0.30;0.25;;;;;;;;;;5067246;28;20034;-60
2024/01/13 09:48:54;;;;;;;0.00;0.00;;;;;;;;;;5060965;28;20033;-60
2024/01/13 09:51:21;;;;;;;1.10;0.47;;;;;;;;;;5064328;28;20117;-61
2024/01/13 09:53:51;;;;;;;0.20;0.20;;;;;;;;;;5062421;28;20420;-59
2024/01/13 09:56:21;;;;;;;0.63;0.63;;;;;;;;;;5059533;28;20044;-59
2024/01/13 09:58:47;;;;;;;0.38;0.38;;;;;;;;;;5062372;28;20032;-59
2024/01/13 10:01:13;;;;;;;0.10;0.10;;;;;;;;;;5061671;28;20051;-60
2024/01/13 10:03:39;;;;;;;1.00;0.90;;;;;;;;;;5045494;28;20253;-60
2024/01/13 10:06:05;;;;;;;3.30;1.13;;;;;;;;;;5059438;28;20035;-60
2024/01/13 10:08:33;;;;;;;0.10;0.10;;;;;;;;;;5057058;28;20032;-59
2024/01/13 10:11:00;;;;;;;0.43;0.43;;;;;;;;;;5061396;28;20033;-59
2024/01/13 10:13:26;;;;;;;0.30;0.30;;;;;;;;;;5055435;28;20040;-59
2024/01/13 10:15:52;;;;;;;0.03;0.03;;;;;;;;;;5051175;28;20553;-60
2024/01/13 10:18:23;;;;;;;0.93;0.93;;;;;;;;;;5063779;28;20115;-59
2024/01/13 10:20:50;;;;;;;0.17;0.17;;;;;;;;;;5064284;28;20043;-62
2024/01/13 10:23:16;;;;;;;1.25;0.93;;;;;;;;;;5060907;28;20033;-62
2024/01/13 10:25:42;;;;;;;0.75;0.75;;;;;;;;;;5056633;28;20040;-59
2024/01/13 10:28:09;;;;;;;0.82;0.82;;;;;;;;;;5059775;28;20138;-59
2024/01/13 10:30:34;;;;;;;1.05;0.90;;;;;;;;;;5059151;28;20056;-61
2024/01/13 10:33:01;;;;;;;1.08;0.70;;;;;;;;;;5063364;28;20103;-60
2024/01/13 10:35:27;;;;;;;2.22;1.73;;;;;;;;;;5066483;28;20583;-60
2024/01/13 10:37:56;;;;;;;0.00;0.00;;;;;;;;;;5060004;28;20028;-61
2024/01/13 10:40:22;;;;;;;1.08;1.02;;;;;;;;;;5059730;28;20047;-59
2024/01/13 10:42:49;;;;;;;0.00;0.00;;;;;;;;;;5056681;28;20048;-60
2024/01/13 10:45:17;;;;;;;0.52;0.52;;;;;;;;;;5050346;28;20257;-62
2024/01/13 10:47:50;;;;;;;0.55;0.45;;;;;;;;;;5052583;28;20060;-61
2024/01/13 10:50:16;;;;;;;2.85;0.20;;;;;;;;;;5057578;28;20089;-60
2024/01/13 10:52:54;;;;;;;1.02;0.95;;;;;;;;;;5063352;28;20041;-60
2024/01/13 10:55:20;;;;;;;0.40;0.40;;;;;;;;;;5043302;28;20032;-59
2024/01/13 10:57:47;;;;;;;0.00;0.00;;;;;;;;;;5057988;28;20109;-61
2024/01/13 11:00:14;;;;;;;0.20;0.20;;;;;;;;;;5062171;28;20419;-59
2024/01/13 11:02:42;;;;;;;0.13;0.13;;;;;;;;;;5059363;28;20083;-61
2024/01/13 11:05:10;;;;;;;0.68;0.63;;;;;;;;;;5056562;28;20043;-60
2024/01/13 11:07:37;;;;;;;0.17;0.17;;;;;;;;;;5057267;28;20046;-61
2024/01/13 11:10:05;;;;;;;3.90;1.15;;;;;;;;;;5045995;28;20389;-60
2024/01/13 11:12:39;;;;;;;0.17;0.17;;;;;;;;;;5058894;28;20098;-61
2024/01/13 11:15:08;;;;;;;0.63;0.55;;;;;;;;;;5045757;28;20495;-61
2024/01/13 11:17:34;;;;;;;0.00;0.00;;;;;;;;;;5055558;28;20086;-60
2024/01/13 11:20:02;;;;;;;0.45;0.45;;;;;;;;;;5058294;28;20032;-59
2024/01/13 11:22:33;;;;;;;0.10;0.10;;;;;;;;;;5060664;28;20520;-59
2024/01/13 11:24:59;;;;;;;0.10;0.10;;;;;;;;;;5059663;28;20127;-65
2024/01/13 11:27:25;;;;;;;0.28;0.28;;;;;;;;;;5058522;28;20258;-63
2024/01/13 11:29:51;;;;;;;0.65;0.45;;;;;;;;;;5053150;28;20040;-64
2024/01/13 11:32:17;;;;;;;1.65;1.38;;;;;;;;;;5041858;28;20535;-64
2024/01/13 11:34:45;;;;;;;1.67;1.30;;;;;;;;;;5066949;28;20435;-65
2024/01/13 11:37:12;;;;;;;0.10;0.10;;;;;;;;;;5054173;28;20497;-64
2024/01/13 11:39:38;;;;;;;0.93;0.90;;;;;;;;;;5058782;28;20040;-65
2024/01/13 11:42:04;;;;;;;1.48;1.38;;;;;;;;;;5062381;28;20413;-64
2024/01/13 11:44:37;;;;;;;2.30;1.05;;;;;;;;;;5060806;28;20068;-64
2024/01/13 11:47:05;;;;;;;;;;;;;;;;;;5057992;28;20499;-65
2024/01/13 11:49:31;;;;;;;0.38;0.38;;;;;;;;;;5044663;28;19943;-64
2024/01/13 11:51:57;;;;;;;0.15;0.10;;;;;;;;;;5064167;28;20452;-65
2024/01/13 11:54:24;;;;;;;0.17;0.17;;;;;;;;;;5051860;28;20049;-65
2024/01/13 11:56:50;;;;;;;0.08;0.08;;;;;;;;;;5059735;28;20040;-65
2024/01/13 11:59:16;;;;;;;0.08;0.08;;;;;;;;;;5054530;28;20068;-65
2024/01/13 12:01:46;;;;;;;1.17;0.75;;;;;;;;;;5061334;28;20055;-64
2024/01/13 12:04:13;;;;;;;3.28;1.15;;;;;;;;;;5049985;28;20076;-65
2024/01/13 12:06:42;;;;;;;1.17;0.98;;;;;;;;;;5058511;28;20039;-65
2024/01/13 12:09:08;;;;;;;2.45;2.05;;;;;;;;;;5057639;28;20142;-65
2024/01/13 12:11:34;;;;;;;1.10;0.90;;;;;;;;;;5050370;28;20524;-65
2024/01/13 12:14:02;;;;;;;0.20;0.20;;;;;;;;;;5052989;28;20232;-64
2024/01/13 12:16:28;;;;;;;1.05;0.95;;;;;;;;;;5056930;28;20358;-65
2024/01/13 12:18:55;;;;;;;0.45;0.45;;;;;;;;;;5066371;28;20059;-65
2024/01/13 12:21:22;;;;;;;0.00;0.00;;;;;;;;;;5051495;28;20139;-65
2024/01/13 12:23:48;;;;;;;0.10;0.10;;;;;;;;;;5065926;28;20123;-65
2024/01/13 12:26:14;;;;;;;0.00;0.00;;;;;;;;;;5064719;28;20119;-64
2024/01/13 12:28:40;;;;;;;0.00;0.00;;;;;;;;;;5063130;28;20055;-64
2024/01/13 12:31:07;;;;;;;0.00;0.00;;;;;;;;;;5062784;28;20559;-65
2024/01/13 12:33:33;;;;;;;0.00;0.00;;;;;;;;;;5063354;28;20463;-60
2024/01/13 12:36:03;;;;;;;0.00;0.00;;;;;;;;;;5060250;28;20082;-61
2024/01/13 12:38:30;;;;;;;0.10;0.00;;;;;;;;;;5069610;28;20052;-61
2024/01/13 12:40:57;;;;;;;6.57;3.13;;;;;;;;;;5062364;28;20033;-59
2024/01/13 12:43:26;;;;;;;3.85;1.60;;;;;;;;;;5063383;28;20476;-60
2024/01/13 12:45:54;;;;;;;1.75;0.85;;;;;;;;;;5063466;28;20142;-59
2024/01/13 12:48:20;;;;;;;0.00;0.00;;;;;;;;;;5060790;28;20048;-60
2024/01/13 12:50:46;;;;;;;2.63;1.10;;;;;;;;;;5060274;28;20046;-61
2024/01/13 12:53:13;;;;;;;1.27;1.17;;;;;;;;;;5060156;28;20083;-60
2024/01/13 12:55:39;;;;;;;0.00;0.00;;;;;;;;;;5059457;28;20928;-59
2024/01/13 12:58:05;;;;;;;0.52;0.52;;;;;;;;;;5055265;28;20064;-59
2024/01/13 13:00:33;;;;;;;0.75;0.75;;;;;;;;;;5062913;28;20043;-60
2024/01/13 13:02:59;;;;;;;0.00;0.00;;;;;;;;;;5058580;28;20044;-61
2024/01/13 13:05:25;;;;;;;0.00;0.00;;;;;;;;;;5058724;28;20059;-61
2024/01/13 13:07:51;;;;;;;0.35;0.35;;;;;;;;;;5062592;28;20506;-61
2024/01/13 13:10:21;;;;;;;0.00;0.00;;;;;;;;;;5059216;28;20040;-60
2024/01/13 13:12:49;;;;;;;2.38;1.23;;;;;;;;;;5061585;28;20533;-60
2024/01/13 13:15:16;;;;;;;10.82;4.90;;;;;;;;;;5057121;28;20060;-59
2024/01/13 13:17:42;;;;;;;0.20;0.20;;;;;;;;;;5060822;28;20218;-59
2024/01/13 13:20:08;;;;;;;6.85;2.80;;;;;;;;;;5060190;28;20060;-61
2024/01/13 13:22:37;;;;;;;0.80;0.73;;;;;;;;;;5064043;28;20068;-61
2024/01/13 13:25:06;;;;;;;3.25;1.73;;;;;;;;;;5066113;28;20040;-61
2024/01/13 13:27:32;;;;;;;0.20;0.20;;;;;;;;;;5061320;28;20039;-60
2024/01/13 13:29:59;;;;;;;0.70;0.68;;;;;;;;;;5061380;28;20445;-59
2024/01/13 13:32:24;;;;;;;0.00;0.00;;;;;;;;;;5058071;28;20047;-60
2024/01/13 13:34:50;;;;;;;0.00;0.00;;;;;;;;;;5052609;28;20036;-59
2024/01/13 13:37:17;;;;;;;0.00;0.00;;;;;;;;;;5066459;28;20131;-59
2024/01/13 13:39:43;;;;;;;0.00;0.00;;;;;;;;;;5058006;28;20060;-60
2024/01/13 13:42:09;;;;;;;0.00;0.00;;;;;;;;;;5045790;28;20123;-61
2024/01/13 13:44:37;;;;;;;0.00;0.00;;;;;;;;;;5058570;28;20499;-64
2024/01/13 13:47:03;;;;;;;0.00;0.00;;;;;;;;;;5059521;28;20419;-64
2024/01/13 13:49:29;;;;;;;0.10;0.00;;;;;;;;;;5052198;28;20139;-65
2024/01/13 13:51:57;;;;;;;1.33;1.23;;;;;;;;;;5061428;28;20511;-65
2024/01/13 13:54:23;;;;;;;0.00;0.00;;;;;;;;;;5059581;28;20047;-60
2024/01/13 13:56:49;;;;;;;1.73;1.58;;;;;;;;;;5061137;28;20032;-60
2024/01/13 13:59:15;;;;;;;0.90;0.63;;;;;;;;;;5064533;28;20447;-61
2024/01/13 14:01:41;;;;;;;0.13;0.13;;;;;;;;;;5053908;28;20112;-60
2024/01/13 14:04:09;;;;;;;1.13;0.68;;;;;;;;;;5058955;28;20523;-60
2024/01/13 14:06:35;;;;;;;1.58;0.95;;;;;;;;;;5061317;28;20111;-60
2024/01/13 14:09:01;;;;;;;0.13;0.13;;;;;;;;;;5057626;28;20583;-62
2024/01/13 14:11:27;;;;;;;1.15;1.05;;;;;;;;;;5057091;28;20040;-61
2024/01/13 14:13:53;;;;;;;0.00;0.00;;;;;;;;;;5063383;28;20047;-59
2024/01/13 14:16:20;;;;;;;0.00;0.00;;;;;;;;;;5059188;28;20040;-60
2024/01/13 14:18:47;;;;;;;13.15;2.65;;;;;;;;;;5064187;28;20043;-61
2024/01/13 14:21:15;;;;;;;0.13;0.08;;;;;;;;;;5065652;28;20408;-60
2024/01/13 14:23:41;;;;;;;0.10;0.10;;;;;;;;;;5058764;28;20430;-61
2024/01/13 14:26:07;;;;;;;3.20;1.23;;;;;;;;;;5056562;28;20492;-60
2024/01/13 14:28:33;;;;;;;0.00;0.00;;;;;;;;;;5052019;28;20028;-59
2024/01/13 14:31:00;;;;;;;0.00;0.00;;;;;;;;;;5056777;28;20028;-59
2024/01/13 14:33:26;;;;;;;0.00;0.00;;;;;;;;;;5054479;28;20044;-60
2024/01/13 14:35:52;;;;;;;0.00;0.00;;;;;;;;;;5050423;28;20036;-61
2024/01/13 14:38:18;;;;;;;0.00;0.00;;;;;;;;;;5024710;28;20059;-60